createdAt,value
2018-11-10T00:00:18.525Z,9.20
2018-11-10T00:02:47.155Z,9.20
2018-11-10T00:05:15.633Z,9.30
2018-11-10T00:07:43.711Z,9.30
2018-11-10T00:10:11.787Z,9.20
2018-11-10T00:12:39.789Z,9.20
2018-11-10T00:15:09.525Z,9.20
2018-11-10T00:17:37.579Z,9.20
2018-11-10T00:20:05.675Z,9.20
2018-11-10T00:22:33.750Z,9.20
2018-11-10T00:25:01.826Z,9.20
2018-11-10T00:27:29.866Z,9.30
2018-11-10T00:29:57.882Z,9.30
2018-11-10T00:32:25.941Z,9.30
2018-11-10T00:34:54.065Z,9.30
2018-11-10T00:37:22.142Z,9.30
2018-11-10T00:39:50.274Z,9.30
2018-11-10T00:42:18.626Z,9.20
2018-11-10T00:44:46.705Z,9.20
2018-11-10T00:47:14.713Z,9.20
2018-11-10T00:49:42.766Z,9.30
2018-11-10T00:52:10.765Z,9.30
2018-11-10T00:54:38.787Z,9.20
2018-11-10T00:57:07.127Z,9.20
2018-11-10T00:59:35.154Z,9.20
2018-11-10T01:02:03.257Z,9.20
2018-11-10T01:04:31.309Z,9.20
2018-11-10T01:06:59.463Z,9.00
2018-11-10T01:09:27.559Z,9.00
2018-11-10T01:11:55.641Z,9.00
2018-11-10T01:14:23.717Z,9.10
2018-11-10T01:16:51.733Z,9.10
2018-11-10T01:19:19.885Z,9.10
2018-11-10T01:21:47.901Z,9.00
2018-11-10T01:24:16.013Z,9.00
2018-11-10T01:26:44.022Z,9.00
2018-11-10T01:29:18.509Z,9.00
2018-11-10T01:31:46.519Z,9.10
2018-11-10T01:34:14.530Z,9.10
2018-11-10T01:36:42.622Z,9.10
2018-11-10T01:39:10.709Z,9.10
2018-11-10T01:41:39.237Z,9.10
2018-11-10T01:44:08.921Z,9.20
2018-11-10T01:46:36.934Z,9.10
2018-11-10T01:49:05.610Z,9.00
2018-11-10T01:51:33.706Z,9.10
2018-11-10T01:54:01.966Z,9.10
2018-11-10T01:56:30.058Z,9.10
2018-11-10T01:58:59.148Z,9.10
2018-11-10T02:01:27.558Z,9.20
2018-11-10T02:03:55.846Z,9.10
2018-11-10T02:06:23.967Z,9.00
2018-11-10T02:08:52.009Z,9.00
2018-11-10T02:11:20.052Z,9.10
2018-11-10T02:13:48.156Z,9.10
2018-11-10T02:16:16.164Z,9.00
2018-11-10T02:18:44.345Z,9.10
2018-11-10T02:21:12.410Z,9.10
2018-11-10T02:23:40.725Z,9.00
2018-11-10T02:26:08.742Z,9.10
2018-11-10T02:28:36.794Z,9.20
2018-11-10T02:31:04.850Z,9.20
2018-11-10T02:33:32.885Z,9.20
2018-11-10T02:36:00.898Z,9.20
2018-11-10T02:38:28.975Z,9.30
2018-11-10T02:40:56.987Z,9.20
2018-11-10T02:43:25.086Z,9.00
2018-11-10T02:45:53.145Z,9.00
2018-11-10T02:48:21.224Z,8.90
2018-11-10T02:50:49.232Z,9.00
2018-11-10T02:53:17.242Z,8.90
2018-11-10T02:55:45.286Z,8.90
2018-11-10T02:58:13.286Z,9.00
2018-11-10T03:00:41.382Z,9.00
2018-11-10T03:03:09.388Z,8.90
2018-11-10T03:05:37.413Z,8.90
2018-11-10T03:08:05.629Z,8.90
2018-11-10T03:10:33.718Z,8.80
2018-11-10T03:13:01.797Z,8.80
2018-11-10T03:15:29.825Z,8.80
2018-11-10T03:17:57.862Z,8.70
2018-11-10T03:20:25.956Z,8.80
2018-11-10T03:22:53.945Z,8.80
2018-11-10T03:25:21.958Z,8.70
2018-11-10T03:27:49.998Z,8.70
2018-11-10T03:30:18.013Z,8.70
2018-11-10T03:32:46.360Z,8.70
2018-11-10T03:35:14.438Z,8.80
2018-11-10T03:37:42.502Z,8.80
2018-11-10T03:40:11.579Z,8.80
2018-11-10T03:42:40.136Z,8.80
2018-11-10T03:45:09.557Z,8.80
2018-11-10T03:47:37.566Z,8.80
2018-11-10T03:50:06.134Z,8.90
2018-11-10T03:52:34.169Z,8.90
2018-11-10T03:55:02.220Z,8.70
2018-11-10T03:57:30.280Z,8.70
2018-11-10T03:59:58.429Z,8.70
2018-11-10T04:02:26.866Z,8.70
2018-11-10T04:04:54.886Z,8.70
2018-11-10T04:09:56.510Z,8.60
2018-11-10T04:12:24.598Z,8.70
2018-11-10T04:14:52.968Z,8.60
2018-11-10T04:17:21.018Z,8.60
2018-11-10T04:19:49.169Z,8.70
2018-11-10T04:22:21.674Z,8.80
2018-11-10T04:24:49.760Z,8.80
2018-11-10T04:27:17.801Z,8.70
2018-11-10T04:29:45.806Z,8.60
2018-11-10T04:32:13.902Z,8.60
2018-11-10T04:34:41.944Z,8.60
2018-11-10T04:37:09.978Z,8.60
2018-11-10T04:39:38.037Z,8.50
2018-11-10T04:42:06.042Z,8.60
2018-11-10T04:44:34.127Z,8.70
2018-11-10T04:47:02.171Z,8.60
2018-11-10T04:49:30.200Z,8.60
2018-11-10T04:51:58.286Z,8.60
2018-11-10T04:54:26.328Z,8.70
2018-11-10T04:56:54.389Z,8.70
2018-11-10T04:59:22.425Z,8.70
2018-11-10T05:01:50.469Z,8.70
2018-11-10T05:04:18.505Z,8.60
2018-11-10T05:06:46.673Z,8.60
2018-11-10T05:09:14.761Z,8.70
2018-11-10T05:11:42.761Z,8.60
2018-11-10T05:14:10.839Z,8.70
2018-11-10T05:16:38.847Z,8.70
2018-11-10T05:19:07.001Z,8.70
2018-11-10T05:21:35.058Z,8.60
2018-11-10T05:24:03.258Z,8.70
2018-11-10T05:26:31.347Z,8.60
2018-11-10T05:28:59.349Z,8.70
2018-11-10T05:31:27.719Z,8.70
2018-11-10T05:33:55.777Z,8.70
2018-11-10T05:36:23.791Z,8.70
2018-11-10T05:38:51.850Z,8.70
2018-11-10T05:41:19.953Z,8.70
2018-11-10T05:43:48.035Z,8.60
2018-11-10T05:46:16.077Z,8.60
2018-11-10T05:48:44.107Z,8.60
2018-11-10T05:51:12.158Z,8.60
2018-11-10T05:53:40.276Z,8.80
2018-11-10T05:56:09.277Z,8.80
2018-11-10T05:58:37.400Z,8.80
2018-11-10T06:01:06.164Z,8.70
2018-11-10T06:03:34.253Z,8.80
2018-11-10T06:06:02.268Z,8.70
2018-11-10T06:08:30.306Z,8.60
2018-11-10T06:10:58.313Z,8.60
2018-11-10T06:13:26.390Z,8.60
2018-11-10T06:15:54.533Z,8.70
2018-11-10T06:18:22.489Z,8.70
2018-11-10T06:20:50.841Z,8.70
2018-11-10T06:23:18.907Z,8.80
2018-11-10T06:25:47.322Z,8.80
2018-11-10T06:28:15.380Z,8.70
2018-11-10T06:30:43.470Z,8.60
2018-11-10T06:33:11.546Z,8.70
2018-11-10T06:35:39.670Z,8.70
2018-11-10T06:38:07.746Z,8.60
2018-11-10T06:40:36.090Z,8.70
2018-11-10T06:43:04.650Z,8.70
2018-11-10T06:45:32.728Z,8.60
2018-11-10T06:48:00.801Z,8.70
2018-11-10T06:50:28.904Z,8.70
2018-11-10T06:52:56.993Z,8.80
2018-11-10T06:55:25.059Z,8.70
2018-11-10T06:57:53.111Z,8.80
2018-11-10T07:00:21.210Z,8.90
2018-11-10T07:02:49.282Z,8.80
2018-11-10T07:05:17.400Z,8.90
2018-11-10T07:07:45.441Z,8.90
2018-11-10T07:10:13.518Z,8.90
2018-11-10T07:12:41.594Z,8.90
2018-11-10T07:15:09.724Z,9.00
2018-11-10T07:17:38.093Z,9.00
2018-11-10T07:20:06.398Z,9.00
2018-11-10T07:22:34.422Z,9.00
2018-11-10T07:25:02.833Z,9.00
2018-11-10T07:27:30.794Z,9.10
2018-11-10T07:29:58.900Z,9.00
2018-11-10T07:32:27.024Z,9.00
2018-11-10T07:34:55.159Z,8.90
2018-11-10T07:37:23.319Z,9.00
2018-11-10T07:39:51.353Z,9.10
2018-11-10T07:42:19.489Z,9.20
2018-11-10T07:44:47.589Z,9.10
2018-11-10T07:47:15.605Z,9.20
2018-11-10T07:49:43.739Z,9.30
2018-11-10T07:52:11.906Z,9.30
2018-11-10T07:54:39.921Z,9.40
2018-11-10T07:57:08.173Z,9.40
2018-11-10T07:59:36.389Z,9.40
2018-11-10T08:02:04.657Z,9.40
2018-11-10T08:04:33.044Z,9.40
2018-11-10T08:07:01.066Z,9.40
2018-11-10T08:09:29.186Z,9.50
2018-11-10T08:11:57.673Z,9.50
2018-11-10T08:14:25.621Z,9.50
2018-11-10T08:16:53.642Z,9.50
2018-11-10T08:19:21.959Z,9.60
2018-11-10T08:21:50.038Z,9.50
2018-11-10T08:24:18.065Z,9.50
2018-11-10T08:26:46.218Z,9.50
2018-11-10T08:29:14.262Z,9.60
2018-11-10T08:31:42.422Z,9.60
2018-11-10T08:34:10.441Z,9.60
2018-11-10T08:36:38.550Z,9.80
2018-11-10T08:39:08.469Z,9.90
2018-11-10T08:41:36.664Z,9.90
2018-11-10T08:44:05.353Z,9.90
2018-11-10T08:46:33.453Z,9.90
2018-11-10T08:49:01.499Z,10.00
2018-11-10T08:51:29.853Z,9.90
2018-11-10T08:53:58.008Z,9.90
2018-11-10T08:56:26.098Z,10.10
2018-11-10T08:58:54.535Z,10.00
2018-11-10T09:01:22.553Z,10.10
2018-11-10T09:03:50.653Z,10.00
2018-11-10T09:06:19.045Z,10.00
2018-11-10T09:08:47.045Z,10.10
2018-11-10T09:11:15.113Z,10.20
2018-11-10T09:13:43.186Z,10.30
2018-11-10T09:16:11.269Z,10.40
2018-11-10T09:18:39.666Z,10.40
2018-11-10T09:21:07.831Z,10.30
2018-11-10T09:23:35.950Z,10.30
2018-11-10T09:26:04.026Z,10.40
2018-11-10T09:28:32.137Z,10.60
2018-11-10T09:31:00.224Z,10.60
2018-11-10T09:33:28.319Z,10.70
2018-11-10T09:35:56.398Z,10.60
2018-11-10T09:38:24.418Z,10.70
2018-11-10T09:40:52.525Z,10.80
2018-11-10T09:43:21.017Z,10.80
2018-11-10T09:45:49.046Z,10.80
2018-11-10T09:48:17.050Z,10.90
2018-11-10T09:50:45.280Z,11.20
2018-11-10T09:53:13.354Z,11.30
2018-11-10T09:55:41.422Z,11.30
2018-11-10T09:58:09.442Z,11.30
2018-11-10T10:00:37.497Z,11.30
2018-11-10T10:03:05.908Z,11.40
2018-11-10T10:05:33.935Z,11.50
2018-11-10T10:08:01.959Z,11.50
2018-11-10T10:10:30.043Z,11.70
2018-11-10T10:12:58.097Z,11.70
2018-11-10T10:15:26.245Z,11.70
2018-11-10T10:17:54.335Z,11.80
2018-11-10T10:20:22.393Z,11.90
2018-11-10T10:22:51.094Z,11.70
2018-11-10T10:25:19.679Z,11.90
2018-11-10T10:27:48.477Z,11.90
2018-11-10T10:30:24.625Z,12.10
2018-11-10T10:32:53.259Z,12.20
2018-11-10T10:35:21.454Z,12.10
2018-11-10T10:37:50.236Z,12.30
2018-11-10T10:40:18.474Z,12.30
2018-11-10T10:42:47.052Z,12.30
2018-11-10T10:45:16.549Z,12.40
2018-11-10T10:47:44.813Z,12.50
2018-11-10T10:50:14.039Z,12.70
2018-11-10T10:52:42.282Z,12.50
2018-11-10T10:55:11.743Z,12.60
2018-11-10T10:57:39.778Z,12.70
2018-11-10T11:00:14.904Z,12.80
2018-11-10T11:02:48.621Z,12.90
2018-11-10T11:05:20.305Z,13.00
2018-11-10T11:07:48.656Z,13.00
2018-11-10T11:10:16.669Z,12.80
2018-11-10T11:12:44.731Z,12.80
2018-11-10T11:15:12.976Z,13.00
2018-11-10T11:17:41.121Z,12.90
2018-11-10T11:20:09.433Z,12.90
2018-11-10T11:22:37.550Z,13.10
2018-11-10T11:25:05.882Z,13.20
2018-11-10T11:27:34.147Z,13.30
2018-11-10T11:30:02.738Z,13.20
2018-11-10T11:32:31.078Z,13.20
2018-11-10T11:34:59.324Z,12.90
2018-11-10T11:37:27.421Z,12.60
2018-11-10T11:39:55.496Z,12.70
2018-11-10T11:42:23.511Z,12.80
2018-11-10T11:44:51.592Z,12.90
2018-11-10T11:47:19.618Z,12.80
2018-11-10T11:49:47.744Z,12.80
2018-11-10T11:52:15.854Z,12.90
2018-11-10T11:54:54.433Z,12.90
2018-11-10T11:57:22.480Z,13.00
2018-11-10T11:59:50.514Z,13.10
2018-11-10T12:02:18.740Z,13.10
2018-11-10T12:04:46.730Z,13.00
2018-11-10T12:07:14.817Z,13.00
2018-11-10T12:09:42.929Z,13.00
2018-11-10T12:12:11.018Z,12.90
2018-11-10T12:14:39.033Z,13.10
2018-11-10T12:17:07.214Z,13.10
2018-11-10T12:19:35.172Z,12.80
2018-11-10T12:22:03.842Z,12.80
2018-11-10T12:24:31.998Z,12.70
2018-11-10T12:27:00.075Z,12.70
2018-11-10T12:29:29.011Z,12.90
2018-11-10T12:31:57.205Z,13.10
2018-11-10T12:34:25.205Z,13.10
2018-11-10T12:36:53.306Z,13.10
2018-11-10T12:39:21.378Z,13.10
2018-11-10T12:41:49.526Z,13.10
2018-11-10T12:44:17.626Z,13.10
2018-11-10T12:46:45.657Z,13.20
2018-11-10T12:49:14.109Z,13.40
2018-11-10T12:51:42.046Z,13.40
2018-11-10T12:54:10.058Z,13.30
2018-11-10T12:56:38.292Z,13.40
2018-11-10T12:59:06.586Z,13.50
2018-11-10T13:01:34.634Z,13.40
2018-11-10T13:04:02.747Z,13.40
2018-11-10T13:06:30.838Z,13.20
2018-11-10T13:08:58.977Z,13.20
2018-11-10T13:11:27.023Z,13.30
2018-11-10T13:13:54.998Z,13.40
2018-11-10T13:16:23.101Z,13.30
2018-11-10T13:18:51.146Z,13.30
2018-11-10T13:21:19.210Z,13.30
2018-11-10T13:23:47.310Z,13.40
2018-11-10T13:26:15.394Z,13.40
2018-11-10T13:28:43.481Z,13.40
2018-11-10T13:31:11.566Z,13.40
2018-11-10T13:33:39.667Z,13.40
2018-11-10T13:36:07.665Z,13.40
2018-11-10T13:38:35.733Z,13.40
2018-11-10T13:41:03.810Z,13.40
2018-11-10T13:43:31.855Z,13.40
2018-11-10T13:45:59.974Z,13.40
2018-11-10T13:48:28.058Z,13.50
2018-11-10T13:50:56.263Z,13.40
2018-11-10T13:53:24.115Z,13.50
2018-11-10T13:55:52.220Z,13.50
2018-11-10T13:58:20.386Z,13.40
2018-11-10T14:00:48.441Z,13.50
2018-11-10T14:03:16.545Z,13.40
2018-11-10T14:05:44.570Z,13.50
2018-11-10T14:08:12.617Z,13.50
2018-11-10T14:10:40.662Z,13.50
2018-11-10T14:13:08.680Z,13.50
2018-11-10T14:15:36.777Z,13.50
2018-11-10T14:18:05.027Z,13.60
2018-11-10T14:20:33.263Z,13.50
2018-11-10T14:23:01.439Z,13.50
2018-11-10T14:25:29.466Z,13.40
2018-11-10T14:27:57.493Z,13.40
2018-11-10T14:30:25.801Z,13.30
2018-11-10T14:32:53.877Z,13.20
2018-11-10T14:35:21.967Z,13.20
2018-11-10T14:37:50.037Z,13.10
2018-11-10T14:40:18.409Z,13.00
2018-11-10T14:42:46.780Z,13.00
2018-11-10T14:45:16.184Z,12.90
2018-11-10T14:47:44.594Z,12.70
2018-11-10T14:50:13.378Z,12.70
2018-11-10T14:52:41.716Z,12.60
2018-11-10T14:55:10.557Z,12.40
2018-11-10T14:57:38.714Z,12.20
2018-11-10T15:00:12.054Z,12.00
2018-11-10T15:02:40.138Z,11.90
2018-11-10T15:05:09.209Z,11.80
2018-11-10T15:07:37.298Z,11.70
2018-11-10T15:10:07.362Z,11.60
2018-11-10T15:12:35.384Z,11.50
2018-11-10T15:15:03.398Z,11.50
2018-11-10T15:17:31.583Z,11.30
2018-11-10T15:19:59.585Z,11.20
2018-11-10T15:22:27.705Z,11.20
2018-11-10T15:24:55.863Z,11.20
2018-11-10T15:27:23.873Z,11.20
2018-11-10T15:29:52.006Z,11.20
2018-11-10T15:32:20.010Z,11.10
2018-11-10T15:34:48.060Z,11.00
2018-11-10T15:37:16.123Z,10.90
2018-11-10T15:39:44.224Z,10.90
2018-11-10T15:42:12.278Z,10.80
2018-11-10T15:44:40.390Z,10.70
2018-11-10T15:47:08.457Z,10.70
2018-11-10T15:49:36.877Z,10.60
2018-11-10T15:52:05.143Z,10.40
2018-11-10T15:54:33.189Z,10.30
2018-11-10T15:57:01.343Z,10.30
2018-11-10T15:59:29.441Z,10.30
2018-11-10T16:01:57.466Z,10.30
2018-11-10T16:04:25.642Z,10.30
2018-11-10T16:06:53.981Z,10.40
2018-11-10T16:09:22.106Z,10.40
2018-11-10T16:11:50.062Z,10.40
2018-11-10T16:14:18.258Z,10.40
2018-11-10T16:16:46.305Z,10.40
2018-11-10T16:19:14.714Z,10.40
2018-11-10T16:21:42.765Z,10.40
2018-11-10T16:24:10.930Z,10.50
2018-11-10T16:26:38.981Z,10.60
2018-11-10T16:29:07.043Z,10.60
2018-11-10T16:31:35.438Z,10.60
2018-11-10T16:34:03.456Z,10.50
2018-11-10T16:36:31.480Z,10.50
2018-11-10T16:38:59.533Z,10.40
2018-11-10T16:41:27.674Z,10.30
2018-11-10T16:43:55.730Z,10.20
2018-11-10T16:46:23.817Z,10.10
2018-11-10T16:48:52.099Z,10.10
2018-11-10T16:51:20.209Z,10.10
2018-11-10T16:53:48.291Z,10.10
2018-11-10T16:56:16.345Z,10.10
2018-11-10T16:58:44.411Z,10.10
2018-11-10T17:01:12.555Z,10.10
2018-11-10T17:03:40.708Z,10.00
2018-11-10T17:06:08.820Z,10.00
2018-11-10T17:08:37.002Z,10.00
2018-11-10T17:11:05.830Z,10.00
2018-11-10T17:13:34.019Z,10.00
2018-11-10T17:16:02.035Z,10.00
2018-11-10T17:18:30.230Z,9.90
2018-11-10T17:20:58.364Z,9.80
2018-11-10T17:23:26.409Z,9.70
2018-11-10T17:25:54.423Z,9.70
2018-11-10T17:28:22.514Z,9.70
2018-11-10T17:30:50.562Z,9.60
2018-11-10T17:33:18.645Z,9.60
2018-11-10T17:35:46.654Z,9.60
2018-11-10T17:38:15.018Z,9.60
2018-11-10T17:40:43.161Z,9.60
2018-11-10T17:43:11.192Z,9.50
2018-11-10T17:45:39.274Z,9.50
2018-11-10T17:48:07.535Z,9.60
2018-11-10T17:50:35.969Z,9.50
2018-11-10T17:53:04.041Z,9.50
2018-11-10T17:55:32.082Z,9.50
2018-11-10T17:58:00.238Z,9.50
2018-11-10T18:00:28.288Z,9.40
2018-11-10T18:02:56.489Z,9.40
2018-11-10T18:05:24.606Z,9.30
2018-11-10T18:07:52.749Z,9.30
2018-11-10T18:10:21.002Z,9.20
2018-11-10T18:12:49.309Z,9.20
2018-11-10T18:15:17.434Z,9.20
2018-11-10T18:17:45.698Z,9.30
2018-11-10T18:20:15.045Z,9.30
2018-11-10T18:22:43.553Z,9.30
2018-11-10T18:25:12.613Z,9.20
2018-11-10T18:27:40.926Z,9.20
2018-11-10T18:30:10.482Z,9.10
2018-11-10T18:32:38.978Z,9.20
2018-11-10T18:35:07.900Z,9.20
2018-11-10T18:37:36.345Z,9.20
2018-11-10T18:40:04.650Z,9.20
2018-11-10T18:42:32.614Z,9.10
2018-11-10T18:45:00.721Z,9.10
2018-11-10T18:47:28.796Z,9.00
2018-11-10T18:49:56.834Z,9.00
2018-11-10T18:52:24.876Z,9.00
2018-11-10T18:54:53.221Z,8.90
2018-11-10T18:57:21.469Z,8.90
2018-11-10T18:59:49.272Z,8.80
2018-11-10T19:02:17.318Z,8.70
2018-11-10T19:04:45.564Z,8.80
2018-11-10T19:07:13.891Z,8.70
2018-11-10T19:09:41.913Z,8.70
2018-11-10T19:12:10.021Z,8.70
2018-11-10T19:14:38.117Z,8.60
2018-11-10T19:17:06.138Z,8.60
2018-11-10T19:19:34.629Z,8.70
2018-11-10T19:22:02.653Z,8.60
2018-11-10T19:24:30.649Z,8.60
2018-11-10T19:26:59.037Z,8.50
2018-11-10T19:29:27.060Z,8.40
2018-11-10T19:31:55.061Z,8.40
2018-11-10T19:34:23.111Z,8.40
2018-11-10T19:36:51.745Z,8.30
2018-11-10T19:39:20.074Z,8.30
2018-11-10T19:41:48.110Z,8.30
2018-11-10T19:44:16.196Z,8.20
2018-11-10T19:46:44.483Z,8.20
2018-11-10T19:49:12.504Z,8.20
2018-11-10T19:51:40.978Z,8.20
2018-11-10T19:54:08.793Z,8.10
2018-11-10T19:56:36.812Z,8.00
2018-11-10T19:59:07.745Z,7.90
2018-11-10T20:01:36.122Z,7.90
2018-11-10T20:04:04.166Z,7.90
2018-11-10T20:06:32.424Z,8.10
2018-11-10T20:09:00.507Z,8.10
2018-11-10T20:11:29.007Z,7.90
2018-11-10T20:13:58.043Z,7.80
2018-11-10T20:16:26.052Z,7.80
2018-11-10T20:18:54.075Z,7.60
2018-11-10T20:21:22.321Z,7.60
2018-11-10T20:23:50.388Z,7.60
2018-11-10T20:26:18.409Z,7.80
2018-11-10T20:28:46.486Z,7.80
2018-11-10T20:31:14.962Z,7.80
2018-11-10T20:33:42.991Z,7.70
2018-11-10T20:36:11.005Z,7.70
2018-11-10T20:38:39.443Z,7.60
2018-11-10T20:41:07.808Z,7.60
2018-11-10T20:43:35.813Z,7.50
2018-11-10T20:46:04.058Z,7.40
2018-11-10T20:48:32.370Z,7.30
2018-11-10T20:51:00.520Z,7.10
2018-11-10T20:53:28.461Z,6.90
2018-11-10T20:55:56.846Z,6.70
2018-11-10T20:58:24.865Z,6.50
2018-11-10T21:00:52.893Z,6.40
2018-11-10T21:03:21.295Z,6.30
2018-11-10T21:05:49.504Z,6.20
2018-11-10T21:08:17.374Z,6.00
2018-11-10T21:10:45.446Z,5.90
2018-11-10T21:13:13.463Z,5.90
2018-11-10T21:15:41.525Z,5.90
2018-11-10T21:18:09.604Z,6.00
2018-11-10T21:20:37.670Z,6.10
2018-11-10T21:23:05.706Z,6.00
2018-11-10T21:25:33.709Z,6.10
2018-11-10T21:28:01.794Z,6.20
2018-11-10T21:30:29.801Z,6.20
2018-11-10T21:32:57.858Z,6.20
2018-11-10T21:35:25.924Z,6.20
2018-11-10T21:37:53.938Z,6.20
2018-11-10T21:40:21.993Z,6.10
2018-11-10T21:42:50.038Z,6.00
2018-11-10T21:45:18.509Z,5.90
2018-11-10T21:47:46.799Z,5.90
2018-11-10T21:50:16.174Z,6.00
2018-11-10T21:52:44.777Z,6.10
2018-11-10T21:55:14.533Z,6.20
2018-11-10T21:57:43.329Z,6.40
2018-11-10T22:00:13.060Z,6.60
2018-11-10T22:02:42.183Z,6.70
2018-11-10T22:05:10.253Z,6.80
2018-11-10T22:07:38.536Z,6.80
2018-11-10T22:10:08.190Z,7.00
2018-11-10T22:12:36.250Z,7.00
2018-11-10T22:15:04.573Z,7.20
2018-11-10T22:17:32.593Z,7.20
2018-11-10T22:20:00.712Z,7.20
2018-11-10T22:22:28.809Z,7.20
2018-11-10T22:24:56.806Z,7.10
2018-11-10T22:27:24.845Z,7.10
2018-11-10T22:29:52.901Z,7.20
2018-11-10T22:32:20.922Z,7.20
2018-11-10T22:34:48.986Z,7.30
2018-11-10T22:37:16.997Z,7.40
2018-11-10T22:39:45.050Z,7.30
2018-11-10T22:42:13.154Z,7.30
2018-11-10T22:44:41.222Z,7.20
2018-11-10T22:47:09.326Z,7.20
2018-11-10T22:49:37.410Z,7.20
2018-11-10T22:52:05.659Z,7.20
2018-11-10T22:54:33.693Z,7.20
2018-11-10T22:57:01.800Z,7.10
2018-11-10T22:59:29.909Z,7.00
2018-11-10T23:01:57.934Z,7.00
2018-11-10T23:04:25.946Z,7.00
2018-11-10T23:06:54.355Z,6.90
2018-11-10T23:09:22.438Z,6.70
2018-11-10T23:11:50.533Z,6.60
2018-11-10T23:14:19.989Z,6.50
2018-11-10T23:16:48.196Z,6.40
2018-11-10T23:19:16.726Z,6.30
2018-11-10T23:21:44.854Z,6.20
2018-11-10T23:24:13.251Z,6.20
2018-11-10T23:26:41.262Z,6.10
2018-11-10T23:29:09.273Z,6.10
2018-11-10T23:31:37.352Z,6.00
2018-11-10T23:34:05.394Z,5.90
2018-11-10T23:36:33.716Z,5.90
2018-11-10T23:39:02.349Z,5.90
2018-11-10T23:41:30.654Z,5.80
2018-11-10T23:43:59.070Z,5.90
2018-11-10T23:46:27.186Z,5.90
2018-11-10T23:48:55.197Z,5.80
2018-11-10T23:51:23.294Z,5.90
2018-11-10T23:53:51.409Z,5.90
2018-11-10T23:56:19.469Z,5.80
2018-11-10T23:58:47.513Z,5.80
